Terminal Aerodrome Forecast
Issued by NWS Wilmington, NC

Home | Current Version | Previous Version | Text Only | Print | Product List | Glossary On
Versions: 1 2 3 4 5 6 7 8 9 10 11 12 13 14 15 16 17
000
FTUS42 KILM 270500
TAFMYR
TAF
KMYR 270537Z 2706/2806 31010G18KT P6SM SCT025 BKN035
     FM272000 31011KT P6SM FEW050
     FM280000 VRB04KT P6SM SKC
      AMD LTD TO CLD VIS AND WIND TIL 271100=

USA.gov is the U.S. government's official web portal to all federal, state and local government web resources and services.